Time;durP1;ratioP1;P1;durP2;ratioP2;P2;SDS_P1;SDS_P2;PMS_P1;PMS_P2;Temp;Humidity;BMP_temperature;BMP_pressure;BME280_temperature;BME280_humidity;BME280_pressure;Samples;Min_cycle;Max_cycle;Signal;HPM_P1;HPM_P2
2022/04/25 00:02:11;;;;;;;3.30;2.70;;;;;;;20.41;44.00;98767.00;5031486;28;20052;-68
2022/04/25 00:04:37;;;;;;;3.65;2.70;;;;;;;20.42;43.74;98769.47;5033363;28;20032;-68
2022/04/25 00:07:03;;;;;;;3.97;3.00;;;;;;;20.46;43.60;98767.19;5033353;28;20061;-68
2022/04/25 00:09:28;;;;;;;4.15;3.50;;;;;;;20.48;43.70;98778.56;5032641;28;20166;-69
2022/04/25 00:11:54;;;;;;;3.63;2.80;;;;;;;20.47;43.64;98781.47;5032491;28;20412;-69
2022/04/25 00:14:20;;;;;;;4.28;3.65;;;;;;;20.46;43.52;98771.75;5032707;28;20029;-68
2022/04/25 00:16:45;;;;;;;5.63;3.03;;;;;;;20.43;43.49;98773.81;5030215;28;20033;-68
2022/04/25 00:19:11;;;;;;;3.58;2.80;;;;;;;20.43;43.59;98779.19;5032938;28;20037;-68
2022/04/25 00:21:36;;;;;;;2.75;2.45;;;;;;;20.43;43.53;98778.38;5033231;28;20484;-69
2022/04/25 00:24:02;;;;;;;3.90;2.78;;;;;;;20.41;43.47;98778.56;5032822;28;20037;-68
2022/04/25 00:26:27;;;;;;;4.35;3.30;;;;;;;20.41;43.52;98767.00;5032423;28;20036;-68
2022/04/25 00:28:53;;;;;;;2.80;2.38;;;;;;;20.37;43.37;98777.31;5033096;28;20122;-68
2022/04/25 00:31:19;;;;;;;3.10;2.80;;;;;;;20.39;43.44;98772.56;5013241;28;20041;-69
2022/04/25 00:33:44;;;;;;;4.40;3.42;;;;;;;20.39;43.48;98764.50;5032612;28;20040;-69
2022/04/25 00:36:10;;;;;;;2.97;2.58;;;;;;;20.37;43.54;98776.47;5032821;28;20061;-68
2022/04/25 00:38:35;;;;;;;6.25;4.03;;;;;;;20.28;43.51;98770.47;5033006;28;20040;-67
2022/04/25 00:41:01;;;;;;;6.00;4.50;;;;;;;20.23;43.65;98767.56;5031330;28;20037;-67
2022/04/25 00:43:26;;;;;;;5.28;4.05;;;;;;;20.16;43.80;98766.72;5032941;28;20095;-67
2022/04/25 00:45:52;;;;;;;4.80;4.10;;;;;;;20.09;43.97;98766.72;5032772;28;20500;-67
2022/04/25 00:48:17;;;;;;;3.95;3.55;;;;;;;20.06;44.07;98770.63;5031030;28;20115;-67
2022/04/25 00:50:45;;;;;;;4.15;3.75;;;;;;;20.05;44.01;98766.28;5032236;28;20037;-67
2022/04/25 00:53:10;;;;;;;5.25;3.47;;;;;;;20.04;44.11;98763.78;5032104;28;20037;-67
2022/04/25 00:55:36;;;;;;;4.13;3.72;;;;;;;20.02;44.15;98765.84;5032366;28;20045;-67
2022/04/25 00:58:03;;;;;;;5.03;3.15;;;;;;;19.97;44.36;98763.75;5032366;28;20091;-68
2022/04/25 01:00:28;;;;;;;4.68;3.60;;;;;;;19.96;44.35;98764.78;5031845;28;20037;-67
2022/04/25 01:02:54;;;;;;;3.28;2.97;;;;;;;19.94;44.45;98770.38;5031250;28;20048;-68
2022/04/25 01:05:20;;;;;;;4.68;3.70;;;;;;;19.90;44.42;98771.78;5014659;28;20041;-68
2022/04/25 01:07:46;;;;;;;4.18;3.78;;;;;;;19.85;44.32;98766.19;5032397;28;20054;-68
2022/04/25 01:10:12;;;;;;;4.82;3.55;;;;;;;19.83;44.65;98777.09;5032047;28;20041;-68
2022/04/25 01:12:37;;;;;;;5.47;3.40;;;;;;;19.82;44.55;98774.63;5032080;28;20524;-68
2022/04/25 01:15:09;;;;;;;6.72;4.65;;;;;;;19.85;44.38;98778.78;5032161;28;20116;-68
2022/04/25 01:17:35;;;;;;;4.95;3.75;;;;;;;19.82;44.38;98778.13;5032227;28;20399;-68
2022/04/25 01:20:00;;;;;;;7.35;4.47;;;;;;;19.76;44.52;98773.59;5029853;28;20127;-68
2022/04/25 01:22:40;;;;;;;5.95;4.68;;;;;;;19.71;44.73;98778.72;5032358;28;20113;-68
2022/04/25 01:27:50;;;;;;;5.80;4.35;;;;;;;19.60;44.92;98779.28;5036072;28;20090;-68
2022/04/25 01:30:15;;;;;;;5.95;4.93;;;;;;;19.54;45.09;98772.00;5035883;28;20033;-68
2022/04/25 01:32:41;;;;;;;4.20;3.70;;;;;;;19.48;45.16;98776.31;5035718;28;20048;-68
2022/04/25 01:35:07;;;;;;;5.40;4.20;;;;;;;19.46;45.30;98773.00;5033492;28;20060;-68
2022/04/25 01:37:32;;;;;;;5.03;3.78;;;;;;;19.43;45.28;98768.00;5036289;28;20083;-68
2022/04/25 01:39:58;;;;;;;3.42;3.13;;;;;;;19.48;45.16;98770.94;5035894;28;20029;-68
2022/04/25 01:42:24;;;;;;;6.78;4.47;;;;;;;19.49;45.07;98767.25;5036213;28;20130;-68
2022/04/25 01:44:50;;;;;;;7.40;4.10;;;;;;;19.53;45.16;98771.19;5035699;28;20041;-68
2022/04/25 01:47:16;;;;;;;5.05;4.03;;;;;;;19.55;45.23;98765.63;5035257;28;20038;-68
2022/04/25 01:49:42;;;;;;;5.82;4.00;;;;;;;19.56;45.08;98772.63;5033206;28;20094;-68
2022/04/25 01:52:15;;;;;;;7.30;3.90;;;;;;;19.52;45.26;98769.53;5035451;28;20041;-67
2022/04/25 01:54:40;;;;;;;6.20;3.92;;;;;;;19.47;45.26;98767.44;5035604;28;20041;-68
2022/04/25 01:57:06;;;;;;;6.78;4.50;;;;;;;19.45;45.23;98769.50;5036143;28;20114;-68
2022/04/25 01:59:31;;;;;;;5.47;3.92;;;;;;;19.44;45.09;98767.00;5034992;28;20033;-68
2022/04/25 02:01:59;;;;;;;4.43;3.58;;;;;;;19.44;45.08;98773.19;5035257;28;20044;-68
2022/04/25 02:04:25;;;;;;;4.95;3.92;;;;;;;19.44;45.09;98767.84;5031145;28;20037;-67
2022/04/25 02:06:50;;;;;;;6.90;4.18;;;;;;;19.43;45.08;98771.53;5035341;28;20112;-67
2022/04/25 02:09:17;;;;;;;8.90;4.25;;;;;;;19.39;45.25;98770.28;5034885;28;20080;-67
2022/04/25 02:11:42;;;;;;;5.82;4.45;;;;;;;19.34;45.36;98767.34;5034891;28;20042;-67
2022/04/25 02:14:08;;;;;;;6.63;4.75;;;;;;;19.32;45.18;98766.75;5014051;28;20034;-67
2022/04/25 02:16:34;;;;;;;5.70;4.38;;;;;;;19.23;45.42;98763.38;5015776;28;20036;-67
2022/04/25 02:19:00;;;;;;;4.70;3.85;;;;;;;19.18;45.30;98763.13;5018199;28;20095;-68
2022/04/25 02:21:26;;;;;;;7.43;4.88;;;;;;;19.19;45.32;98767.47;5032935;28;20079;-68
2022/04/25 02:23:51;;;;;;;6.15;3.78;;;;;;;19.18;45.43;98774.69;5034785;28;20049;-68
2022/04/25 02:26:17;;;;;;;5.07;4.55;;;;;;;19.16;45.32;98773.22;5034795;28;20029;-68
2022/04/25 02:28:42;;;;;;;4.90;4.30;;;;;;;19.18;45.30;98779.22;5032744;28;20440;-67
2022/04/25 02:31:08;;;;;;;4.95;3.58;;;;;;;19.14;45.53;98773.41;5033485;28;20072;-68
2022/04/25 02:33:35;;;;;;;6.63;4.15;;;;;;;19.14;45.45;98786.84;5035019;28;20029;-68
2022/04/25 02:36:04;;;;;;;6.60;4.70;;;;;;;19.14;45.45;98780.63;5034170;28;20033;-68
2022/04/25 02:38:31;;;;;;;4.68;4.05;;;;;;;19.10;45.62;98782.06;5034856;28;20056;-68
2022/04/25 02:41:06;;;;;;;6.25;4.50;;;;;;;19.08;45.51;98773.38;5034761;28;20038;-68
2022/04/25 02:43:39;;;;;;;12.32;5.35;;;;;;;19.09;45.55;98783.09;5034379;28;20132;-68
2022/04/25 02:46:15;;;;;;;4.25;3.85;;;;;;;19.05;45.63;98787.97;5018031;28;20038;-68
2022/04/25 02:48:44;;;;;;;7.25;4.45;;;;;;;19.00;45.68;98785.88;5015110;28;20034;-68
2022/04/25 02:51:11;;;;;;;5.22;3.60;;;;;;;18.96;45.58;98792.69;5021214;28;20036;-68
2022/04/25 02:53:37;;;;;;;4.82;3.65;;;;;;;18.99;45.65;98794.13;5034527;28;20037;-68
2022/04/25 02:56:03;;;;;;;6.38;4.05;;;;;;;19.05;45.52;98801.38;5033992;28;20088;-68
2022/04/25 02:58:30;;;;;;;7.82;3.45;;;;;;;19.08;45.36;98801.00;5034754;28;20099;-68
2022/04/25 03:00:57;;;;;;;4.10;2.97;;;;;;;19.10;45.48;98793.59;5032434;28;20121;-68
2022/04/25 03:03:26;;;;;;;4.43;3.40;;;;;;;19.11;45.22;98802.50;5034587;28;20033;-69
2022/04/25 03:05:53;;;;;;;6.15;3.25;;;;;;;19.06;45.52;98809.25;5015820;28;20504;-68
2022/04/25 03:08:21;;;;;;;5.20;3.38;;;;;;;19.02;45.50;98794.56;5034120;28;20049;-68
2022/04/25 03:10:48;;;;;;;5.15;2.75;;;;;;;19.09;45.40;98793.81;5034295;28;20606;-69
2022/04/25 03:13:15;;;;;;;3.83;3.00;;;;;;;19.17;45.11;98796.31;5033946;28;20083;-68
2022/04/25 03:15:42;;;;;;;5.38;3.58;;;;;;;19.15;45.19;98795.69;5032210;28;20155;-68
2022/04/25 03:18:12;;;;;;;6.15;4.00;;;;;;;19.15;45.09;98796.53;5034033;28;20500;-68
2022/04/25 03:20:39;;;;;;;4.32;3.30;;;;;;;19.14;45.09;98797.56;5034105;28;20059;-69
2022/04/25 03:23:05;;;;;;;4.15;3.47;;;;;;;19.15;44.90;98807.25;5033577;28;20041;-69
2022/04/25 03:25:31;;;;;;;4.85;3.25;;;;;;;19.11;45.18;98803.31;5033798;28;20044;-69
2022/04/25 03:27:58;;;;;;;5.28;2.80;;;;;;;19.16;45.15;98802.72;5033453;28;20039;-68
2022/04/25 03:30:23;;;;;;;4.43;3.35;;;;;;;19.18;44.96;98792.63;5032611;28;20029;-68
2022/04/25 03:32:49;;;;;;;6.20;4.20;;;;;;;19.23;44.86;98810.81;5033284;28;20080;-68
2022/04/25 03:35:17;;;;;;;5.53;3.00;;;;;;;19.28;44.89;98803.81;5033504;28;20045;-68
2022/04/25 03:37:44;;;;;;;5.57;3.78;;;;;;;19.36;44.89;98801.00;5033745;28;20033;-67
2022/04/25 03:40:10;;;;;;;4.78;3.10;;;;;;;19.43;44.78;98793.00;5032450;28;20069;-67
2022/04/25 03:42:37;;;;;;;5.97;3.63;;;;;;;19.58;44.47;98795.56;5033488;28;20125;-66
2022/04/25 03:45:09;;;;;;;3.78;3.38;;;;;;;19.75;44.34;98792.56;5033103;28;20091;-67
2022/04/25 03:47:36;;;;;;;5.85;3.42;;;;;;;19.88;43.97;98789.13;5018055;28;20052;-67
2022/04/25 03:50:02;;;;;;;4.95;3.25;;;;;;;20.01;43.76;98791.88;5029052;28;20091;-67
2022/04/25 03:52:29;;;;;;;4.32;3.53;;;;;;;20.18;43.48;98788.84;5033778;28;20040;-67
2022/04/25 03:57:39;;;;;;;6.63;3.65;;;;;;;20.43;42.94;98787.25;5033826;28;20040;-67
2022/04/25 04:00:06;;;;;;;6.00;3.33;;;;;;;20.59;42.45;98779.84;5033123;28;20041;-69
2022/04/25 04:02:32;;;;;;;6.15;3.90;;;;;;;20.65;42.56;98784.41;5033414;28;20111;-67
2022/04/25 04:04:58;;;;;;;4.93;3.67;;;;;;;20.66;42.22;98786.03;5033096;28;20478;-67
2022/04/25 04:07:24;;;;;;;7.22;3.45;;;;;;;20.67;42.40;98790.38;5024714;28;20080;-69
2022/04/25 04:09:49;;;;;;;3.70;3.22;;;;;;;20.71;42.24;98780.88;5013326;28;20037;-66
2022/04/25 04:12:16;;;;;;;4.82;3.40;;;;;;;20.76;42.02;98782.16;5032642;28;20037;-66
2022/04/25 04:14:43;;;;;;;4.95;3.75;;;;;;;20.76;42.03;98777.59;5032502;28;20041;-67
2022/04/25 04:17:09;;;;;;;4.88;3.50;;;;;;;20.68;42.14;98773.22;5032906;28;20033;-68
2022/04/25 04:19:39;;;;;;;4.47;2.95;;;;;;;20.65;42.18;98770.13;5032886;28;20095;-68
2022/04/25 04:22:05;;;;;;;5.82;3.78;;;;;;;20.68;42.03;98777.78;5031554;28;20116;-67
2022/04/25 04:24:32;;;;;;;6.03;3.45;;;;;;;20.70;42.13;98773.84;5032406;28;20056;-67
2022/04/25 04:27:01;;;;;;;5.68;3.42;;;;;;;20.74;42.20;98779.63;5033306;28;20392;-67
2022/04/25 04:29:36;;;;;;;4.43;3.08;;;;;;;20.81;41.61;98776.97;5032550;28;20045;-66
2022/04/25 04:32:06;;;;;;;4.63;3.80;;;;;;;20.87;41.84;98766.25;5032324;28;20569;-67
2022/04/25 04:34:32;;;;;;;4.90;3.97;;;;;;;20.92;41.84;98779.06;5032282;28;20025;-67
2022/04/25 04:36:59;;;;;;;6.65;3.80;;;;;;;20.96;41.72;98784.84;5032566;28;20036;-67
2022/04/25 04:39:25;;;;;;;6.32;3.88;;;;;;;21.00;41.49;98769.97;5030095;28;20112;-66
2022/04/25 04:41:50;;;;;;;4.53;3.25;;;;;;;21.02;41.33;98782.16;5032004;28;20115;-67
2022/04/25 04:44:16;;;;;;;8.63;3.75;;;;;;;20.98;41.41;98777.41;5032829;28;20059;-70
2022/04/25 04:46:41;;;;;;;4.32;3.33;;;;;;;20.95;41.40;98773.28;5031257;28;20040;-69
2022/04/25 04:49:07;;;;;;;4.70;3.33;;;;;;;20.91;41.24;98771.19;5032681;28;20037;-69
2022/04/25 04:51:33;;;;;;;6.80;3.90;;;;;;;20.89;41.55;98766.03;5032324;28;20033;-68
2022/04/25 04:54:02;;;;;;;4.30;3.00;;;;;;;21.00;41.25;98772.66;5030026;28;20056;-67
2022/04/25 04:56:29;;;;;;;3.67;3.25;;;;;;;21.06;41.15;98776.38;5032674;28;20033;-67
2022/04/25 04:58:55;;;;;;;4.30;3.33;;;;;;;21.18;41.16;98791.66;5032835;28;20029;-67
2022/04/25 05:01:21;;;;;;;6.63;3.38;;;;;;;21.30;40.89;98793.72;5031590;28;20034;-67
2022/04/25 05:03:46;;;;;;;6.95;2.97;;;;;;;21.35;40.88;98788.53;5032157;28;20073;-67
2022/04/25 05:06:12;;;;;;;4.07;3.08;;;;;;;21.32;40.74;98788.97;5031771;28;20029;-67
2022/04/25 05:08:38;;;;;;;3.55;2.67;;;;;;;21.34;40.99;98789.56;5029368;28;20053;-67
2022/04/25 05:11:04;;;;;;;6.35;2.80;;;;;;;21.33;40.79;98799.50;5032348;28;20025;-67
2022/04/25 05:13:31;;;;;;;4.50;3.35;;;;;;;21.29;40.85;98792.06;5032376;28;20455;-67
2022/04/25 05:15:57;;;;;;;6.35;3.25;;;;;;;21.21;40.92;98798.50;5032052;28;20040;-67
2022/04/25 05:18:22;;;;;;;3.58;2.95;;;;;;;21.14;41.00;98803.88;5031629;28;20037;-67
2022/04/25 05:20:48;;;;;;;4.18;2.65;;;;;;;21.07;41.24;98807.59;5031944;28;20484;-66
2022/04/25 05:23:13;;;;;;;4.80;2.55;;;;;;;21.07;41.03;98810.28;5032176;28;20030;-67
2022/04/25 05:25:39;;;;;;;4.03;3.40;;;;;;;21.14;41.14;98806.56;5029081;28;20385;-67
2022/04/25 05:28:05;;;;;;;4.50;3.40;;;;;;;21.25;40.91;98805.09;5031566;28;20074;-69
2022/04/25 05:30:32;;;;;;;6.40;3.00;;;;;;;21.32;40.65;98795.16;5031763;28;20041;-69
2022/04/25 05:33:02;;;;;;;3.67;2.67;;;;;;;21.46;40.60;98811.28;5031540;28;20037;-67
2022/04/25 05:35:30;;;;;;;4.57;2.70;;;;;;;21.57;40.45;98815.19;5031667;28;20030;-67
2022/04/25 05:37:56;;;;;;;4.30;3.35;;;;;;;21.62;40.59;98812.72;5031271;28;20527;-68
2022/04/25 05:40:22;;;;;;;3.60;2.42;;;;;;;21.57;40.54;98807.94;5029757;28;20033;-68
2022/04/25 05:42:49;;;;;;;4.45;2.67;;;;;;;21.54;40.54;98811.06;5031829;28;20029;-67
2022/04/25 05:45:26;;;;;;;4.50;3.13;;;;;;;21.52;40.57;98809.63;5031360;28;20132;-66
2022/04/25 05:47:56;;;;;;;4.00;3.20;;;;;;;21.48;40.81;98817.28;5032147;28;20122;-67
2022/04/25 05:53:07;;;;;;;5.15;3.42;;;;;;;21.43;40.58;98809.84;5032407;28;20036;-68
2022/04/25 05:55:33;;;;;;;3.47;2.67;;;;;;;21.39;40.67;98818.56;5029066;28;20489;-67
2022/04/25 05:58:01;;;;;;;3.53;2.60;;;;;;;21.36;40.82;98827.84;5032303;28;20041;-69
2022/04/25 06:00:27;;;;;;;4.22;2.22;;;;;;;21.43;40.69;98827.84;5030813;28;20033;-68
2022/04/25 06:02:52;;;;;;;3.83;2.25;;;;;;;21.60;40.24;98829.09;5031506;28;20048;-68
2022/04/25 06:05:19;;;;;;;2.85;2.15;;;;;;;21.82;39.85;98828.00;5031124;28;20040;-67
2022/04/25 06:07:45;;;;;;;4.20;2.58;;;;;;;21.98;39.47;98830.22;5031364;28;20065;-68
2022/04/25 06:10:13;;;;;;;2.50;2.05;;;;;;;22.12;39.27;98825.63;5031533;28;20538;-68
2022/04/25 06:12:44;;;;;;;2.60;2.05;;;;;;;22.31;38.83;98825.72;5034641;28;20411;-69
2022/04/25 06:15:10;;;;;;;6.47;2.97;;;;;;;22.46;38.44;98823.59;5034593;28;20041;-68
2022/04/25 06:17:37;;;;;;;2.95;1.92;;;;;;;22.62;38.14;98827.69;5035043;28;20041;-68
2022/04/25 06:20:04;;;;;;;4.07;2.67;;;;;;;22.75;37.92;98817.84;5034917;28;20048;-69
2022/04/25 06:22:29;;;;;;;3.35;1.88;;;;;;;22.80;37.76;98815.28;5034868;28;20123;-70
2022/04/25 06:24:55;;;;;;;8.43;4.40;;;;;;;22.90;37.71;98812.13;5034584;28;20112;-67
2022/04/25 06:27:20;;;;;;;6.65;4.43;;;;;;;23.00;37.36;98809.78;5031636;28;20033;-69
2022/04/25 06:29:46;;;;;;;5.75;4.03;;;;;;;23.05;37.26;98799.13;5034517;28;20040;-68
2022/04/25 06:32:12;;;;;;;7.85;4.80;;;;;;;23.07;37.44;98794.34;5033039;28;20482;-69
2022/04/25 06:34:38;;;;;;;8.20;3.92;;;;;;;23.14;37.34;98796.97;5035097;28;20057;-68
2022/04/25 06:37:04;;;;;;;5.82;3.97;;;;;;;23.20;37.41;98797.97;5022193;28;20044;-68
2022/04/25 06:39:30;;;;;;;6.13;3.65;;;;;;;23.23;37.16;98787.59;5017648;28;20041;-69
2022/04/25 06:41:55;;;;;;;7.22;4.03;;;;;;;23.35;37.08;98784.16;5032804;28;20546;-68
2022/04/25 06:44:21;;;;;;;7.70;4.47;;;;;;;23.43;36.94;98779.31;5014913;28;20041;-69
2022/04/25 06:46:46;;;;;;;7.55;4.03;;;;;;;23.49;36.47;98782.97;5014685;28;20499;-68
2022/04/25 06:49:21;;;;;;;6.80;4.55;;;;;;;23.45;36.66;98770.97;5014960;28;20034;-69
2022/04/25 06:51:51;;;;;;;8.18;3.58;;;;;;;23.31;36.69;98778.38;5014776;28;20092;-68
2022/04/25 06:54:17;;;;;;;7.35;4.57;;;;;;;23.26;37.00;98776.34;5014924;28;20440;-69
2022/04/25 06:56:43;;;;;;;5.53;3.53;;;;;;;23.28;36.96;98774.25;5014889;28;20042;-68
2022/04/25 06:59:10;;;;;;;8.63;3.95;;;;;;;23.33;36.65;98764.66;5018716;28;20029;-69
2022/04/25 07:01:36;;;;;;;6.32;3.70;;;;;;;23.35;36.74;98766.09;5032685;28;20091;-67
2022/04/25 07:04:02;;;;;;;5.57;3.70;;;;;;;23.45;36.95;98769.06;5034357;28;20477;-68
2022/04/25 07:06:28;;;;;;;4.90;3.38;;;;;;;23.55;36.42;98773.16;5034634;28;20033;-68
2022/04/25 07:08:54;;;;;;;9.38;3.63;;;;;;;23.64;36.35;98765.59;5034150;28;20424;-67
2022/04/25 07:11:20;;;;;;;6.40;3.40;;;;;;;23.76;35.87;98779.97;5033807;28;20039;-68
2022/04/25 07:13:45;;;;;;;3.65;2.80;;;;;;;23.76;36.14;98780.78;5034325;28;20037;-68
2022/04/25 07:16:15;;;;;;;4.45;2.78;;;;;;;23.82;36.02;98773.69;5033910;28;20439;-68
2022/04/25 07:18:41;;;;;;;6.07;3.30;;;;;;;23.88;35.54;98767.34;5034318;28;20496;-68
2022/04/25 07:29:22;;;;;;;4.18;2.95;;;;;;;23.97;35.59;98775.19;5034563;28;20099;-68
2022/04/25 07:31:48;;;;;;;4.38;2.53;;;;;;;23.92;35.63;98784.75;5022313;28;20125;-68
2022/04/25 07:34:14;;;;;;;13.13;2.92;;;;;;;23.96;35.62;98778.91;5014648;28;20034;-68
2022/04/25 07:36:39;;;;;;;4.55;2.47;;;;;;;23.99;35.40;98782.00;5033697;28;20041;-68
2022/04/25 07:39:05;;;;;;;5.50;3.20;;;;;;;24.01;35.06;98785.31;5033767;28;20033;-68
2022/04/25 07:41:30;;;;;;;4.22;3.05;;;;;;;24.00;35.36;98769.31;5033434;28;20040;-68
2022/04/25 07:43:57;;;;;;;4.78;2.60;;;;;;;23.97;35.47;98767.09;5033746;28;20040;-68
2022/04/25 07:46:25;;;;;;;2.80;2.50;;;;;;;23.96;35.37;98760.00;5033601;28;20034;-69
2022/04/25 07:48:51;;;;;;;5.70;3.00;;;;;;;23.91;35.35;98755.25;5033077;28;20481;-68
2022/04/25 07:51:17;;;;;;;5.45;3.20;;;;;;;23.85;35.38;98745.38;5032532;28;20037;-69
2022/04/25 07:53:42;;;;;;;5.63;1.83;;;;;;;23.90;35.43;98748.19;5033351;28;20116;-69
2022/04/25 07:56:08;;;;;;;4.82;2.35;;;;;;;23.96;35.47;98749.19;5033152;28;20083;-69
2022/04/25 07:58:34;;;;;;;9.23;3.30;;;;;;;23.92;35.43;98756.91;5033371;28;20033;-69
2022/04/25 08:01:01;;;;;;;5.25;2.45;;;;;;;23.95;35.21;98753.75;5032691;28;20052;-69
2022/04/25 08:03:26;;;;;;;4.43;2.60;;;;;;;23.97;35.22;98751.69;5032855;28;20037;-69
2022/04/25 08:05:52;;;;;;;3.13;2.47;;;;;;;24.03;34.99;98747.25;5033073;28;20584;-69
2022/04/25 08:08:17;;;;;;;4.45;2.85;;;;;;;24.08;35.15;98750.09;5033354;28;20123;-69
2022/04/25 08:10:43;;;;;;;5.40;2.85;;;;;;;24.11;34.87;98755.06;5032357;28;20045;-69
2022/04/25 08:18:36;;;;;;;3.95;2.88;;;;;;;24.09;34.63;98743.66;5032944;28;20045;-69
2022/04/25 08:21:02;;;;;;;4.38;2.70;;;;;;;24.05;34.93;98748.66;5032880;28;20036;-69
2022/04/25 08:23:28;;;;;;;3.47;2.17;;;;;;;24.05;34.92;98750.56;5033150;28;20045;-69
2022/04/25 08:25:53;;;;;;;3.53;1.92;;;;;;;24.07;34.80;98741.16;5032471;28;20037;-69
2022/04/25 08:28:19;;;;;;;8.40;2.75;;;;;;;24.11;34.75;98732.59;5031920;28;20029;-68
2022/04/25 08:30:46;;;;;;;3.22;2.40;;;;;;;24.11;34.65;98728.03;5032398;28;20427;-70
2022/04/25 08:33:12;;;;;;;3.58;2.40;;;;;;;24.14;34.62;98722.13;5033156;28;20456;-70
2022/04/25 08:35:38;;;;;;;9.32;3.20;;;;;;;24.15;34.40;98721.09;5031859;28;20033;-70
2022/04/25 08:38:05;;;;;;;4.85;2.95;;;;;;;24.05;34.55;98716.22;5032226;28;20029;-69
2022/04/25 08:40:31;;;;;;;3.97;2.80;;;;;;;23.98;34.68;98717.38;5032149;28;20036;-69
2022/04/25 08:42:58;;;;;;;3.28;2.72;;;;;;;23.87;35.13;98706.28;5032920;28;20087;-70
2022/04/25 08:45:24;;;;;;;8.35;3.33;;;;;;;23.78;35.11;98708.47;5032185;28;20040;-68
2022/04/25 08:47:54;;;;;;;5.68;2.95;;;;;;;23.75;35.24;98698.09;5014779;28;20034;-69
2022/04/25 08:50:22;;;;;;;5.95;2.53;;;;;;;23.73;35.04;98704.78;5031975;28;20021;-69
2022/04/25 08:52:48;;;;;;;7.05;2.70;;;;;;;23.66;35.12;98695.97;5032044;28;20037;-69
2022/04/25 08:55:15;;;;;;;6.40;4.07;;;;;;;23.70;35.35;98695.28;5031900;28;20091;-69
2022/04/25 08:57:42;;;;;;;8.43;5.28;;;;;;;23.84;35.18;98690.50;5032791;28;20416;-69
2022/04/25 09:00:08;;;;;;;12.70;4.90;;;;;;;23.97;35.15;98694.94;5031593;28;20033;-68
2022/04/25 09:02:39;;;;;;;9.27;4.82;;;;;;;24.11;35.00;98689.34;5031934;28;21440;-67
2022/04/25 09:05:06;;;;;;;12.90;4.07;;;;;;;24.18;34.67;98687.38;5032157;28;20034;-69
2022/04/25 09:07:33;;;;;;;8.27;4.40;;;;;;;24.20;34.74;98688.78;5032417;28;20042;-68
2022/04/25 09:09:58;;;;;;;14.95;5.00;;;;;;;24.30;34.49;98688.25;5029340;28;20040;-70
2022/04/25 09:12:24;;;;;;;10.93;5.50;;;;;;;24.36;34.44;98692.69;5030737;28;20459;-67
2022/04/25 09:14:50;;;;;;;13.02;5.85;;;;;;;24.40;33.94;98690.38;5031986;28;20031;-69
2022/04/25 09:17:16;;;;;;;10.77;5.95;;;;;;;24.44;33.89;98688.03;5032471;28;20033;-69
2022/04/25 09:19:42;;;;;;;14.02;5.97;;;;;;;24.49;33.69;98682.72;5031869;28;20488;-69
2022/04/25 09:22:09;;;;;;;5.88;3.90;;;;;;;24.47;33.68;98679.47;5032002;28;20033;-70
2022/04/25 09:24:43;;;;;;;5.97;3.97;;;;;;;24.35;33.87;98690.25;5032366;28;20448;-69
2022/04/25 09:27:18;;;;;;;12.32;3.90;;;;;;;24.21;34.16;98687.75;5031625;28;20026;-72
2022/04/25 09:29:46;;;;;;;10.25;4.10;;;;;;;24.08;34.10;98683.34;5031994;28;20140;-71
2022/04/25 09:32:13;;;;;;;6.22;4.00;;;;;;;24.01;34.07;98679.94;5030225;28;20515;-70
2022/04/25 09:37:47;;;;;;;7.20;3.45;;;;;;;23.93;34.28;98669.41;5032228;28;20114;-73
2022/04/25 09:40:17;;;;;;;7.22;3.88;;;;;;;23.89;34.16;98668.25;5018961;28;20056;-73
2022/04/25 09:42:43;;;;;;;7.45;4.00;;;;;;;23.85;34.54;98665.16;5032009;28;20041;-69
2022/04/25 09:45:09;;;;;;;5.10;3.25;;;;;;;23.82;34.31;98654.81;5031584;28;20049;-70
2022/04/25 09:47:36;;;;;;;7.03;3.63;;;;;;;23.82;34.76;98660.22;5035719;28;20486;-69
2022/04/25 09:50:10;;;;;;;4.00;2.72;;;;;;;23.86;34.27;98655.19;5035301;28;20095;-69
2022/04/25 09:52:50;;;;;;;7.00;3.47;;;;;;;23.87;34.51;98659.53;5035620;28;20476;-70
2022/04/25 09:55:15;;;;;;;7.13;3.25;;;;;;;23.89;34.68;98660.94;5035754;28;20079;-73
2022/04/25 09:57:42;;;;;;;7.13;3.60;;;;;;;23.89;34.53;98666.34;5035561;28;20480;-71
2022/04/25 10:00:09;;;;;;;12.15;3.25;;;;;;;23.87;34.29;98662.25;5034918;28;20037;-70
2022/04/25 10:02:39;;;;;;;7.97;2.97;;;;;;;23.88;34.48;98659.28;5034898;28;20044;-70
2022/04/25 10:05:24;;;;;;;5.50;3.37;;;;;;;23.93;34.69;98667.53;5035435;28;20037;-67
2022/04/25 10:07:55;;;;;;;5.78;3.65;;;;;;;23.95;34.39;98670.00;5027956;28;20301;-70
2022/04/25 10:10:21;;;;;;;7.15;2.92;;;;;;;23.94;34.58;98662.94;5031467;28;20045;-71
2022/04/25 10:12:47;;;;;;;5.00;2.80;;;;;;;23.92;34.21;98662.34;5034237;28;20037;-72
2022/04/25 10:15:12;;;;;;;5.28;3.00;;;;;;;23.91;34.39;98658.84;5034096;28;20029;-73
2022/04/25 10:17:38;;;;;;;5.80;2.85;;;;;;;23.89;34.10;98652.03;5035775;28;20033;-73
2022/04/25 10:20:05;;;;;;;4.78;2.53;;;;;;;23.87;34.09;98651.44;5035227;28;20060;-74
2022/04/25 10:22:31;;;;;;;6.57;2.60;;;;;;;23.86;34.26;98660.59;5034358;28;20128;-76
2022/04/25 10:24:56;;;;;;;4.72;2.78;;;;;;;23.85;34.25;98661.63;5033476;28;20123;-69
2022/04/25 10:27:30;;;;;;;3.85;2.38;;;;;;;23.85;34.10;98661.63;5031162;28;20061;-70
2022/04/25 10:30:00;;;;;;;5.43;2.65;;;;;;;23.83;33.84;98655.63;5030736;28;20112;-66
2022/04/25 10:32:25;;;;;;;3.83;2.53;;;;;;;23.83;34.36;98667.25;5034810;28;20025;-70
2022/04/25 10:35:00;;;;;;;3.53;2.55;;;;;;;23.86;34.04;98655.19;5034234;28;20048;-70
2022/04/25 10:37:31;;;;;;;5.22;2.63;;;;;;;23.91;34.11;98655.31;5030506;28;20033;-66
2022/04/25 10:39:58;;;;;;;8.15;2.65;;;;;;;23.95;33.84;98661.09;5014893;28;20033;-71
2022/04/25 10:45:09;;;;;;;3.95;2.22;;;;;;;23.99;33.69;98646.91;5018470;28;20052;-70
2022/04/25 10:47:35;;;;;;;3.58;2.45;;;;;;;24.02;33.97;98653.72;5015017;28;20057;-73
2022/04/25 10:50:06;;;;;;;6.30;2.47;;;;;;;24.06;33.65;98644.91;5026985;28;20087;-70
2022/04/25 10:52:37;;;;;;;6.78;2.08;;;;;;;24.09;33.50;98657.16;5031984;28;20037;-68
2022/04/25 10:55:09;;;;;;;9.95;2.53;;;;;;;24.12;33.37;98632.34;5033169;28;20091;-71
2022/04/25 10:57:35;;;;;;;9.48;3.05;;;;;;;24.16;33.39;98638.16;5033360;28;20025;-69
2022/04/25 11:00:01;;;;;;;5.00;2.53;;;;;;;24.17;33.60;98640.59;5032892;28;20037;-69
2022/04/25 11:02:28;;;;;;;6.53;2.35;;;;;;;24.15;33.49;98625.69;5028657;28;20029;-68
2022/04/25 11:05:12;;;;;;;3.45;2.08;;;;;;;24.14;33.15;98629.44;5032976;28;20055;-68
2022/04/25 11:07:40;;;;;;;8.45;2.67;;;;;;;24.14;33.38;98632.16;5031909;28;20500;-69
2022/04/25 11:10:07;;;;;;;5.07;2.42;;;;;;;24.18;33.51;98628.75;5032455;28;20043;-66
2022/04/25 11:12:59;;;;;;;5.18;2.40;;;;;;;24.27;33.58;98634.63;5033324;28;20037;-68
2022/04/25 11:15:52;;;;;;;3.80;2.17;;;;;;;24.29;33.34;98629.81;5029559;28;20067;-70
2022/04/25 11:18:28;;;;;;;2.75;2.30;;;;;;;24.33;33.32;98625.59;5028871;28;20412;-67
2022/04/25 11:20:55;;;;;;;8.63;2.95;;;;;;;24.38;33.40;98641.13;5033111;28;20044;-68
2022/04/25 11:23:29;;;;;;;6.22;2.22;;;;;;;24.43;33.30;98637.72;5033698;28;20037;-67
2022/04/25 11:25:56;;;;;;;3.00;2.10;;;;;;;24.42;33.28;98636.06;5033145;28;20438;-68
2022/04/25 11:28:22;;;;;;;4.13;2.08;;;;;;;24.42;32.98;98633.34;5034558;28;20380;-67
2022/04/25 11:31:26;;;;;;;3.75;2.30;;;;;;;24.41;32.68;98627.09;5033305;28;20446;-68
2022/04/25 11:33:54;;;;;;;8.80;2.70;;;;;;;24.38;32.79;98627.59;4984086;28;20049;-68
2022/04/25 11:36:22;;;;;;;7.85;3.00;;;;;;;24.41;32.41;98629.81;5033087;28;20036;-67
2022/04/25 11:41:34;;;;;;;2.75;2.13;;;;;;;24.40;31.91;98605.72;5033924;28;20075;-68
2022/04/25 11:44:00;;;;;;;7.18;2.85;;;;;;;24.42;31.55;98614.44;5033722;28;20029;-68
2022/04/25 11:46:28;;;;;;;8.32;2.40;;;;;;;24.43;31.65;98616.09;5032924;28;20036;-68
2022/04/25 11:48:55;;;;;;;3.65;2.50;;;;;;;24.45;32.02;98612.06;5032871;28;20116;-67
2022/04/25 11:51:24;;;;;;;4.90;2.17;;;;;;;24.48;32.08;98606.19;5033151;28;20477;-67
2022/04/25 11:53:54;;;;;;;4.13;1.98;;;;;;;24.50;31.79;98608.66;5034248;28;20037;-67
2022/04/25 11:56:23;;;;;;;4.43;2.00;;;;;;;24.51;32.06;98604.91;5015295;28;20400;-67
2022/04/25 11:58:50;;;;;;;5.32;1.90;;;;;;;24.55;32.08;98611.50;5032948;28;20029;-68
2022/04/25 12:01:35;;;;;;;6.75;2.65;;;;;;;24.56;31.87;98610.44;5032950;28;20044;-67
2022/04/25 12:04:27;;;;;;;4.40;2.20;;;;;;;24.56;31.90;98609.63;5033422;28;20049;-66
2022/04/25 12:06:59;;;;;;;2.72;2.25;;;;;;;24.56;32.04;98615.03;5032222;28;20526;-66